Airfield :
LOGIN :

Register | Disclaimer

   EN    FR    IT 

 










Legend :    VFR   Marginal VFR   IFR   Intensive IFR   Very Intensive IFR
Visi :
Ceiling :
>= 8 km
>= 3000ft
5 to 8 km
1000 to 3000 ft
1500m to 5 km
500 to 1000 ft
800 to 1500m
200 to 500 ft
< 800m
< 200 ft
Symbols :   Thunderstorms  Fog  Heavy snow  Heavy precipitations  Wind > 20 kt
SIGMETs :     Misc.  Thunderstorms  Icing  Turbulence  Mountain Waves  Volcanic Ashes






- Airport Elevation : 481 ft
- IATA code : DNK


UKDD - Dnipropetrovs'k

CURRENT METAR :
  • 090800Z 03003MPS 320V110 CAVOK 14/02 Q1020 R26/090070 NOSIG

EXPIRED METARs :
  • 090730Z 02003MPS 320V060 CAVOK 13/02 Q1020 R26/090070 NOSIG
  • 090700Z 03003MPS 320V080 CAVOK 12/02 Q1020 R26/090070 NOSIG
  • 090630Z 04004MPS 350V060 CAVOK 10/01 Q1020 R26/090070 NOSIG
  • 090600Z 03004MPS CAVOK 09/00 Q1020 R26/090070 NOSIG
  • 090530Z 04004MPS CAVOK 08/00 Q1020 R26/090070 NOSIG

TAF TAF UKDD
Valid from the 09 at 06:00 until the 10 at 06:00 UTC


090501Z 0906/1006 02005MPS 9999 SCT020 TX17/0912Z TN03/1004Z
BECMG 0920/0921 24004MPS
TEMPO 0921/1004 2100 BR SCT010



MET'MAP, your aeronautical weather chart ! - Copyright ORBIFLY December 2007 - Disclaimer

ORBIFLY MET'MAP TEAM :

Programming & Development : Alexandra Zaïnal
Concept & original design : Baudouin d'Aumeries
Assistance for programming : Marc-Olivier Méhu
Technical & hardware support : Manuel Goepfert

Contact : metmap@orbifly.com




SOURCES & CREDITS :

   NOAA